Nagykanizsa, Hungary
Current Conditions -  °F | °C
As of 5:45 PM on Thursday 27 Nov 2014 (Local Time) from LHSM Reporting Station
Clear Clear  
Wind Chill: 32°   Ceiling: Unl
Heat Index: 37°   Visibility: 6mi
Dew Point: 28°   Wind: 7mph
Humidity: 70%   Direction: 120°ESE
Pressure: 30.06"   Gusts: NA
Location:  46.46°N, 16.99°E
Report Text: LHSM 271545Z 12006KT CAVOK 03/M02 Q1018
Loading
Personal Weather Stations






























Interactive Weather Map New forecast layout! Learn more

10-Day Weather Forecast

Advertisements
Track Severe Weather on mobile